Time,TemperatureF,DewpointF,PressureIn,WindDirection,WindDirectionDegrees,WindSpeedMPH,WindSpeedGustMPH,Humidity,HourlyPrecipIn,Conditions,Clouds,dailyrainin,SolarRadiationWatts/m^2,SoftwareType,DateUTC
2013-07-30 21:30:00,70.3,66.6,30.10,East,89,1.0,2.0,88,0.00,,,0.01,0,Wunderground v.1.15,2013-07-31 02:30:00,
2013-07-30 21:35:00,70.2,66.5,30.10,East,89,1.0,3.0,88,0.00,,,0.01,0,Wunderground v.1.15,2013-07-31 02:35:00,
2013-07-30 21:40:00,70.0,66.3,30.10,East,89,1.0,1.0,88,0.00,,,0.01,0,Wunderground v.1.15,2013-07-31 02:40:00,
2013-07-30 21:45:00,69.6,65.9,30.11,East,89,0.0,2.0,88,0.00,,,0.01,0,Wunderground v.1.15,2013-07-31 02:45:00,
2013-07-30 21:55:00,68.9,65.8,30.11,East,89,0.0,2.0,90,0.00,,,0.01,0,Wunderground v.1.15,2013-07-31 02:55:00,
2013-07-30 22:05:00,68.7,65.6,30.11,East,89,0.0,0.0,90,0.00,,,0.01,0,Wunderground v.1.15,2013-07-31 03:05:00,
2013-07-30 22:09:00,68.8,66.1,30.11,East,89,0.0,0.0,91,0.00,,,0.01,0,Wunderground v.1.15,2013-07-31 03:09:00,
2013-07-30 22:15:00,68.8,66.1,30.11,East,89,0.0,0.0,91,0.00,,,0.01,0,Wunderground v.1.15,2013-07-31 03:15:00,
2013-07-30 22:20:00,68.9,66.2,30.11,East,89,0.0,0.0,91,0.00,,,0.01,0,Wunderground v.1.15,2013-07-31 03:20:00,
2013-07-30 22:25:00,69.0,66.3,30.11,East,89,0.0,2.0,91,0.00,,,0.01,0,Wunderground v.1.15,2013-07-31 03:25:00,
2013-07-30 22:35:00,69.1,66.4,30.10,ESE,103,1.0,3.0,91,0.00,,,0.01,0,Wunderground v.1.15,2013-07-31 03:35:00,
2013-07-30 22:45:00,69.0,66.3,30.11,ESE,103,0.0,2.0,91,0.00,,,0.01,0,Wunderground v.1.15,2013-07-31 03:45:00,
2013-07-30 22:55:00,68.9,66.2,30.11,ESE,103,0.0,2.0,91,0.00,,,0.01,0,Wunderground v.1.15,2013-07-31 03:55:00,
2013-07-30 23:05:00,68.5,65.8,30.11,ESE,103,0.0,2.0,91,0.00,,,0.01,0,Wunderground v.1.15,2013-07-31 04:05:00,
2013-07-30 23:09:00,68.4,66.0,30.11,ESE,103,0.0,2.0,92,0.00,,,0.01,0,Wunderground v.1.15,2013-07-31 04:09:00,
2013-07-30 23:15:00,68.1,65.7,30.11,ESE,103,0.0,2.0,92,0.00,,,0.01,0,Wunderground v.1.15,2013-07-31 04:15:00,
2013-07-30 23:25:00,67.7,65.6,30.11,ESE,103,0.0,1.0,93,0.00,,,0.01,0,Wunderground v.1.15,2013-07-31 04:25:00,
2013-07-30 23:30:00,67.6,65.2,30.11,ESE,103,0.0,0.0,92,0.00,,,0.01,0,Wunderground v.1.15,2013-07-31 04:30:00,
2013-07-30 23:35:00,67.4,65.3,30.11,ESE,103,0.0,0.0,93,0.00,,,0.01,0,Wunderground v.1.15,2013-07-31 04:35:00,
2013-07-30 23:45:00,67.0,64.9,30.11,ESE,103,0.0,1.0,93,0.00,,,0.01,0,Wunderground v.1.15,2013-07-31 04:45:00,
2013-07-30 23:55:00,66.8,65.0,30.11,SSW,208,1.0,4.0,94,0.00,,,0.01,0,Wunderground v.1.15,2013-07-31 04:55:00,